sensor_id;sensor_type;location;lat;lon;timestamp;P1;durP1;ratioP1;P2;durP2;ratioP2
21890;SDS011;11110;52.386;16.940;2022-12-20T00:01:35;44.87;;;17.57;;
21890;SDS011;11110;52.386;16.940;2022-12-20T00:04:04;51.17;;;17.90;;
21890;SDS011;11110;52.386;16.940;2022-12-20T00:06:34;45.03;;;17.33;;
21890;SDS011;11110;52.386;16.940;2022-12-20T00:09:04;45.60;;;16.03;;
21890;SDS011;11110;52.386;16.940;2022-12-20T00:11:37;44.47;;;17.27;;
21890;SDS011;11110;52.386;16.940;2022-12-20T00:14:07;39.40;;;15.47;;
21890;SDS011;11110;52.386;16.940;2022-12-20T00:16:36;41.87;;;16.73;;
21890;SDS011;11110;52.386;16.940;2022-12-20T00:19:05;37.97;;;15.70;;
21890;SDS011;11110;52.386;16.940;2022-12-20T00:21:36;37.50;;;13.97;;
21890;SDS011;11110;52.386;16.940;2022-12-20T00:24:05;39.87;;;15.30;;
21890;SDS011;11110;52.386;16.940;2022-12-20T00:26:34;44.00;;;16.73;;
21890;SDS011;11110;52.386;16.940;2022-12-20T00:29:03;42.70;;;16.60;;
21890;SDS011;11110;52.386;16.940;2022-12-20T00:31:32;42.97;;;17.10;;
21890;SDS011;11110;52.386;16.940;2022-12-20T00:34:01;40.07;;;16.43;;
21890;SDS011;11110;52.386;16.940;2022-12-20T00:36:30;47.53;;;16.57;;
21890;SDS011;11110;52.386;16.940;2022-12-20T00:39:01;52.47;;;16.33;;
21890;SDS011;11110;52.386;16.940;2022-12-20T00:41:31;34.80;;;15.10;;
21890;SDS011;11110;52.386;16.940;2022-12-20T00:44:00;42.10;;;16.60;;
21890;SDS011;11110;52.386;16.940;2022-12-20T00:46:30;52.20;;;17.87;;
21890;SDS011;11110;52.386;16.940;2022-12-20T00:49:00;46.07;;;16.27;;
21890;SDS011;11110;52.386;16.940;2022-12-20T00:51:28;53.50;;;17.83;;
21890;SDS011;11110;52.386;16.940;2022-12-20T00:53:58;46.97;;;16.80;;
21890;SDS011;11110;52.386;16.940;2022-12-20T00:56:28;45.13;;;16.03;;
21890;SDS011;11110;52.386;16.940;2022-12-20T00:58:57;44.53;;;17.80;;
21890;SDS011;11110;52.386;16.940;2022-12-20T01:01:27;42.13;;;15.57;;
21890;SDS011;11110;52.386;16.940;2022-12-20T01:03:58;43.47;;;17.97;;
21890;SDS011;11110;52.386;16.940;2022-12-20T01:06:26;49.20;;;17.80;;
21890;SDS011;11110;52.386;16.940;2022-12-20T01:08:56;43.43;;;16.47;;
21890;SDS011;11110;52.386;16.940;2022-12-20T01:11:25;51.90;;;18.43;;
21890;SDS011;11110;52.386;16.940;2022-12-20T01:13:57;57.57;;;18.07;;
21890;SDS011;11110;52.386;16.940;2022-12-20T01:16:28;53.90;;;18.57;;
21890;SDS011;11110;52.386;16.940;2022-12-20T01:18:57;45.20;;;16.33;;
21890;SDS011;11110;52.386;16.940;2022-12-20T01:21:27;47.00;;;16.77;;
21890;SDS011;11110;52.386;16.940;2022-12-20T01:23:56;53.57;;;18.03;;
21890;SDS011;11110;52.386;16.940;2022-12-20T01:26:25;46.10;;;16.63;;
21890;SDS011;11110;52.386;16.940;2022-12-20T01:28:57;46.33;;;16.70;;
21890;SDS011;11110;52.386;16.940;2022-12-20T01:31:27;52.20;;;16.97;;
21890;SDS011;11110;52.386;16.940;2022-12-20T01:33:58;46.17;;;16.20;;
21890;SDS011;11110;52.386;16.940;2022-12-20T01:36:28;38.87;;;15.77;;
21890;SDS011;11110;52.386;16.940;2022-12-20T01:38:58;51.43;;;17.03;;
21890;SDS011;11110;52.386;16.940;2022-12-20T01:41:30;44.03;;;15.93;;
21890;SDS011;11110;52.386;16.940;2022-12-20T01:44:00;43.17;;;14.77;;
21890;SDS011;11110;52.386;16.940;2022-12-20T01:46:32;47.87;;;16.57;;
21890;SDS011;11110;52.386;16.940;2022-12-20T01:49:03;46.63;;;15.77;;
21890;SDS011;11110;52.386;16.940;2022-12-20T01:51:37;46.90;;;15.70;;
21890;SDS011;11110;52.386;16.940;2022-12-20T01:54:11;45.07;;;16.60;;
21890;SDS011;11110;52.386;16.940;2022-12-20T01:56:46;47.77;;;15.47;;
21890;SDS011;11110;52.386;16.940;2022-12-20T01:59:19;45.87;;;16.80;;
21890;SDS011;11110;52.386;16.940;2022-12-20T02:01:48;48.90;;;16.43;;
21890;SDS011;11110;52.386;16.940;2022-12-20T02:04:17;47.50;;;16.70;;
21890;SDS011;11110;52.386;16.940;2022-12-20T02:06:45;42.20;;;15.63;;
21890;SDS011;11110;52.386;16.940;2022-12-20T02:09:14;36.63;;;15.00;;
21890;SDS011;11110;52.386;16.940;2022-12-20T02:11:48;40.27;;;14.97;;
21890;SDS011;11110;52.386;16.940;2022-12-20T02:14:31;47.00;;;17.50;;
21890;SDS011;11110;52.386;16.940;2022-12-20T02:17:11;43.93;;;15.23;;
21890;SDS011;11110;52.386;16.940;2022-12-20T02:20:04;53.60;;;17.70;;
21890;SDS011;11110;52.386;16.940;2022-12-20T02:22:51;49.27;;;16.40;;
21890;SDS011;11110;52.386;16.940;2022-12-20T02:25:45;42.90;;;16.63;;
21890;SDS011;11110;52.386;16.940;2022-12-20T02:31:26;49.03;;;16.77;;
21890;SDS011;11110;52.386;16.940;2022-12-20T02:34:00;43.37;;;15.93;;
21890;SDS011;11110;52.386;16.940;2022-12-20T02:36:30;51.30;;;16.97;;
21890;SDS011;11110;52.386;16.940;2022-12-20T02:38:58;52.57;;;15.90;;
21890;SDS011;11110;52.386;16.940;2022-12-20T02:41:29;39.30;;;14.10;;
21890;SDS011;11110;52.386;16.940;2022-12-20T02:44:04;50.80;;;16.63;;
21890;SDS011;11110;52.386;16.940;2022-12-20T02:46:55;47.20;;;16.13;;
21890;SDS011;11110;52.386;16.940;2022-12-20T02:49:27;46.53;;;15.43;;
21890;SDS011;11110;52.386;16.940;2022-12-20T02:51:59;41.73;;;15.50;;
21890;SDS011;11110;52.386;16.940;2022-12-20T02:54:30;47.80;;;25.30;;
21890;SDS011;11110;52.386;16.940;2022-12-20T02:57:01;49.07;;;19.73;;
21890;SDS011;11110;52.386;16.940;2022-12-20T02:59:33;42.03;;;19.23;;
21890;SDS011;11110;52.386;16.940;2022-12-20T03:02:09;54.37;;;20.47;;
21890;SDS011;11110;52.386;16.940;2022-12-20T03:04:39;49.57;;;21.37;;
21890;SDS011;11110;52.386;16.940;2022-12-20T03:07:12;44.43;;;19.87;;
21890;SDS011;11110;52.386;16.940;2022-12-20T03:09:42;47.07;;;22.73;;
21890;SDS011;11110;52.386;16.940;2022-12-20T03:12:14;42.20;;;24.13;;
21890;SDS011;11110;52.386;16.940;2022-12-20T03:14:43;47.63;;;21.43;;
21890;SDS011;11110;52.386;16.940;2022-12-20T03:17:14;51.53;;;24.77;;
21890;SDS011;11110;52.386;16.940;2022-12-20T03:19:43;41.77;;;22.33;;
21890;SDS011;11110;52.386;16.940;2022-12-20T03:22:11;56.33;;;31.57;;
21890;SDS011;11110;52.386;16.940;2022-12-20T03:24:40;58.30;;;27.30;;
21890;SDS011;11110;52.386;16.940;2022-12-20T03:27:11;56.73;;;23.60;;
21890;SDS011;11110;52.386;16.940;2022-12-20T03:29:39;47.47;;;20.73;;
21890;SDS011;11110;52.386;16.940;2022-12-20T03:32:08;55.17;;;22.20;;
21890;SDS011;11110;52.386;16.940;2022-12-20T03:34:41;49.33;;;24.40;;
21890;SDS011;11110;52.386;16.940;2022-12-20T03:37:11;44.10;;;23.50;;
21890;SDS011;11110;52.386;16.940;2022-12-20T03:39:39;50.63;;;31.00;;
21890;SDS011;11110;52.386;16.940;2022-12-20T03:42:08;69.67;;;36.47;;
21890;SDS011;11110;52.386;16.940;2022-12-20T03:44:37;63.73;;;45.17;;
21890;SDS011;11110;52.386;16.940;2022-12-20T03:47:06;53.27;;;34.80;;
21890;SDS011;11110;52.386;16.940;2022-12-20T03:49:36;53.23;;;39.37;;
21890;SDS011;11110;52.386;16.940;2022-12-20T03:52:06;54.93;;;39.43;;
21890;SDS011;11110;52.386;16.940;2022-12-20T03:54:34;53.63;;;38.27;;
21890;SDS011;11110;52.386;16.940;2022-12-20T03:57:08;66.50;;;44.07;;
21890;SDS011;11110;52.386;16.940;2022-12-20T03:59:37;68.23;;;51.20;;
21890;SDS011;11110;52.386;16.940;2022-12-20T04:02:08;81.33;;;54.60;;
21890;SDS011;11110;52.386;16.940;2022-12-20T04:04:36;84.13;;;56.33;;
21890;SDS011;11110;52.386;16.940;2022-12-20T04:07:07;85.77;;;55.93;;
21890;SDS011;11110;52.386;16.940;2022-12-20T04:09:37;86.63;;;55.63;;
21890;SDS011;11110;52.386;16.940;2022-12-20T04:12:10;88.50;;;55.43;;
21890;SDS011;11110;52.386;16.940;2022-12-20T04:14:39;81.90;;;55.30;;
21890;SDS011;11110;52.386;16.940;2022-12-20T04:17:07;85.93;;;55.43;;
21890;SDS011;11110;52.386;16.940;2022-12-20T04:19:36;99.10;;;58.77;;
21890;SDS011;11110;52.386;16.940;2022-12-20T04:22:08;82.77;;;54.93;;
21890;SDS011;11110;52.386;16.940;2022-12-20T04:24:53;90.23;;;55.20;;
21890;SDS011;11110;52.386;16.940;2022-12-20T04:27:23;85.17;;;56.47;;
21890;SDS011;11110;52.386;16.940;2022-12-20T04:29:54;82.90;;;54.53;;
21890;SDS011;11110;52.386;16.940;2022-12-20T04:32:23;91.20;;;56.63;;
21890;SDS011;11110;52.386;16.940;2022-12-20T04:34:51;85.00;;;55.07;;
21890;SDS011;11110;52.386;16.940;2022-12-20T04:37:21;76.33;;;53.00;;
21890;SDS011;11110;52.386;16.940;2022-12-20T04:39:52;88.53;;;54.50;;
21890;SDS011;11110;52.386;16.940;2022-12-20T04:42:35;84.90;;;55.13;;
21890;SDS011;11110;52.386;16.940;2022-12-20T04:45:03;88.60;;;56.07;;
21890;SDS011;11110;52.386;16.940;2022-12-20T04:47:32;86.53;;;55.83;;
21890;SDS011;11110;52.386;16.940;2022-12-20T04:50:01;89.33;;;58.23;;
21890;SDS011;11110;52.386;16.940;2022-12-20T04:52:31;86.07;;;56.57;;
21890;SDS011;11110;52.386;16.940;2022-12-20T04:55:17;84.70;;;55.57;;
21890;SDS011;11110;52.386;16.940;2022-12-20T04:57:45;87.83;;;55.77;;
21890;SDS011;11110;52.386;16.940;2022-12-20T05:00:14;90.07;;;55.70;;
21890;SDS011;11110;52.386;16.940;2022-12-20T05:02:49;78.23;;;54.20;;
21890;SDS011;11110;52.386;16.940;2022-12-20T05:05:20;78.90;;;53.17;;
21890;SDS011;11110;52.386;16.940;2022-12-20T05:07:53;82.17;;;54.53;;
21890;SDS011;11110;52.386;16.940;2022-12-20T05:10:23;78.43;;;52.30;;
21890;SDS011;11110;52.386;16.940;2022-12-20T05:12:53;77.20;;;52.90;;
21890;SDS011;11110;52.386;16.940;2022-12-20T05:15:33;67.63;;;48.50;;
21890;SDS011;11110;52.386;16.940;2022-12-20T05:18:03;73.27;;;50.03;;
21890;SDS011;11110;52.386;16.940;2022-12-20T05:20:40;64.83;;;48.20;;
21890;SDS011;11110;52.386;16.940;2022-12-20T05:23:11;64.07;;;48.60;;
21890;SDS011;11110;52.386;16.940;2022-12-20T05:26:12;76.93;;;48.83;;
21890;SDS011;11110;52.386;16.940;2022-12-20T05:28:49;66.43;;;48.90;;
21890;SDS011;11110;52.386;16.940;2022-12-20T05:31:19;72.27;;;49.63;;
21890;SDS011;11110;52.386;16.940;2022-12-20T05:33:48;68.20;;;48.80;;
21890;SDS011;11110;52.386;16.940;2022-12-20T05:36:17;68.03;;;49.23;;
21890;SDS011;11110;52.386;16.940;2022-12-20T05:38:48;77.10;;;51.47;;
21890;SDS011;11110;52.386;16.940;2022-12-20T05:41:18;68.57;;;49.60;;
21890;SDS011;11110;52.386;16.940;2022-12-20T05:43:50;71.60;;;49.10;;
21890;SDS011;11110;52.386;16.940;2022-12-20T05:46:19;74.03;;;51.13;;
21890;SDS011;11110;52.386;16.940;2022-12-20T05:48:55;70.70;;;48.30;;
21890;SDS011;11110;52.386;16.940;2022-12-20T05:51:24;72.53;;;48.70;;
21890;SDS011;11110;52.386;16.940;2022-12-20T05:53:59;68.57;;;49.77;;
21890;SDS011;11110;52.386;16.940;2022-12-20T05:56:44;111.23;;;62.93;;
21890;SDS011;11110;52.386;16.940;2022-12-20T05:59:15;110.83;;;63.17;;
21890;SDS011;11110;52.386;16.940;2022-12-20T06:01:45;120.80;;;65.10;;
21890;SDS011;11110;52.386;16.940;2022-12-20T06:04:14;125.80;;;68.07;;
21890;SDS011;11110;52.386;16.940;2022-12-20T06:06:44;121.07;;;65.17;;
21890;SDS011;11110;52.386;16.940;2022-12-20T06:09:18;46.70;;;31.30;;
21890;SDS011;11110;52.386;16.940;2022-12-20T06:11:54;52.47;;;28.57;;
21890;SDS011;11110;52.386;16.940;2022-12-20T06:14:23;47.37;;;25.27;;
21890;SDS011;11110;52.386;16.940;2022-12-20T06:16:54;58.40;;;40.70;;
21890;SDS011;11110;52.386;16.940;2022-12-20T06:19:23;73.97;;;50.43;;
21890;SDS011;11110;52.386;16.940;2022-12-20T06:21:55;78.67;;;55.07;;
21890;SDS011;11110;52.386;16.940;2022-12-20T06:24:48;88.53;;;59.97;;
21890;SDS011;11110;52.386;16.940;2022-12-20T06:27:21;84.53;;;57.87;;
21890;SDS011;11110;52.386;16.940;2022-12-20T06:30:00;99.43;;;61.10;;
21890;SDS011;11110;52.386;16.940;2022-12-20T06:32:39;106.93;;;63.07;;
21890;SDS011;11110;52.386;16.940;2022-12-20T06:35:09;117.33;;;64.77;;
21890;SDS011;11110;52.386;16.940;2022-12-20T06:37:37;96.17;;;62.63;;
21890;SDS011;11110;52.386;16.940;2022-12-20T06:40:09;101.53;;;66.33;;
21890;SDS011;11110;52.386;16.940;2022-12-20T06:42:40;95.47;;;59.80;;
21890;SDS011;11110;52.386;16.940;2022-12-20T06:45:09;87.80;;;59.50;;
21890;SDS011;11110;52.386;16.940;2022-12-20T06:47:38;105.17;;;60.80;;
21890;SDS011;11110;52.386;16.940;2022-12-20T06:50:07;126.57;;;67.97;;
21890;SDS011;11110;52.386;16.940;2022-12-20T06:52:35;81.40;;;58.40;;
21890;SDS011;11110;52.386;16.940;2022-12-20T06:55:05;55.67;;;42.53;;
21890;SDS011;11110;52.386;16.940;2022-12-20T06:57:39;69.53;;;55.90;;
21890;SDS011;11110;52.386;16.940;2022-12-20T07:00:08;68.57;;;58.47;;
21890;SDS011;11110;52.386;16.940;2022-12-20T07:02:38;59.37;;;46.67;;
21890;SDS011;11110;52.386;16.940;2022-12-20T07:05:07;68.37;;;53.87;;
21890;SDS011;11110;52.386;16.940;2022-12-20T07:07:35;69.97;;;52.67;;
21890;SDS011;11110;52.386;16.940;2022-12-20T07:10:11;66.10;;;48.97;;
21890;SDS011;11110;52.386;16.940;2022-12-20T07:12:40;64.27;;;41.07;;
21890;SDS011;11110;52.386;16.940;2022-12-20T07:15:14;61.27;;;46.37;;
21890;SDS011;11110;52.386;16.940;2022-12-20T07:17:43;75.73;;;54.80;;
21890;SDS011;11110;52.386;16.940;2022-12-20T07:20:11;78.03;;;53.23;;
21890;SDS011;11110;52.386;16.940;2022-12-20T07:22:40;57.43;;;41.30;;
21890;SDS011;11110;52.386;16.940;2022-12-20T07:25:09;67.87;;;49.53;;
21890;SDS011;11110;52.386;16.940;2022-12-20T07:27:37;73.83;;;49.57;;
21890;SDS011;11110;52.386;16.940;2022-12-20T07:30:08;61.17;;;45.57;;
21890;SDS011;11110;52.386;16.940;2022-12-20T07:32:37;58.57;;;34.33;;
21890;SDS011;11110;52.386;16.940;2022-12-20T07:35:06;83.57;;;52.03;;
21890;SDS011;11110;52.386;16.940;2022-12-20T07:37:36;66.97;;;45.57;;
21890;SDS011;11110;52.386;16.940;2022-12-20T07:40:05;67.97;;;48.73;;
21890;SDS011;11110;52.386;16.940;2022-12-20T07:42:35;63.27;;;27.70;;
21890;SDS011;11110;52.386;16.940;2022-12-20T07:45:13;56.90;;;43.63;;
21890;SDS011;11110;52.386;16.940;2022-12-20T07:47:41;78.07;;;54.13;;
21890;SDS011;11110;52.386;16.940;2022-12-20T07:50:10;88.03;;;54.57;;
21890;SDS011;11110;52.386;16.940;2022-12-20T07:52:38;61.30;;;33.50;;
21890;SDS011;11110;52.386;16.940;2022-12-20T07:55:10;79.27;;;53.47;;
21890;SDS011;11110;52.386;16.940;2022-12-20T07:57:40;93.97;;;54.93;;
21890;SDS011;11110;52.386;16.940;2022-12-20T08:00:15;82.67;;;54.97;;
21890;SDS011;11110;52.386;16.940;2022-12-20T08:02:46;58.73;;;35.10;;
21890;SDS011;11110;52.386;16.940;2022-12-20T08:05:20;61.73;;;43.77;;
21890;SDS011;11110;52.386;16.940;2022-12-20T08:07:49;68.20;;;49.13;;
21890;SDS011;11110;52.386;16.940;2022-12-20T08:10:25;84.03;;;56.70;;
21890;SDS011;11110;52.386;16.940;2022-12-20T08:12:54;58.23;;;43.13;;
21890;SDS011;11110;52.386;16.940;2022-12-20T08:15:25;71.70;;;50.63;;
21890;SDS011;11110;52.386;16.940;2022-12-20T08:17:56;84.27;;;54.93;;
21890;SDS011;11110;52.386;16.940;2022-12-20T08:20:24;78.23;;;54.70;;
21890;SDS011;11110;52.386;16.940;2022-12-20T08:22:52;83.70;;;56.13;;
21890;SDS011;11110;52.386;16.940;2022-12-20T08:25:21;65.67;;;46.80;;
21890;SDS011;11110;52.386;16.940;2022-12-20T08:27:50;52.23;;;42.50;;
21890;SDS011;11110;52.386;16.940;2022-12-20T08:30:19;52.27;;;39.47;;
21890;SDS011;11110;52.386;16.940;2022-12-20T08:32:49;61.17;;;40.73;;
21890;SDS011;11110;52.386;16.940;2022-12-20T08:35:17;77.80;;;53.07;;
21890;SDS011;11110;52.386;16.940;2022-12-20T08:37:45;76.43;;;52.83;;
21890;SDS011;11110;52.386;16.940;2022-12-20T08:40:14;91.73;;;56.73;;
21890;SDS011;11110;52.386;16.940;2022-12-20T08:42:42;92.27;;;58.37;;
21890;SDS011;11110;52.386;16.940;2022-12-20T08:45:11;101.97;;;61.87;;
21890;SDS011;11110;52.386;16.940;2022-12-20T08:47:40;102.97;;;62.30;;
21890;SDS011;11110;52.386;16.940;2022-12-20T08:50:10;63.07;;;47.37;;
21890;SDS011;11110;52.386;16.940;2022-12-20T08:52:39;146.10;;;69.60;;
21890;SDS011;11110;52.386;16.940;2022-12-20T08:55:08;59.30;;;37.47;;
21890;SDS011;11110;52.386;16.940;2022-12-20T08:57:38;47.77;;;25.67;;
21890;SDS011;11110;52.386;16.940;2022-12-20T09:00:07;44.27;;;21.50;;
21890;SDS011;11110;52.386;16.940;2022-12-20T09:02:36;47.00;;;21.67;;
21890;SDS011;11110;52.386;16.940;2022-12-20T09:05:07;44.30;;;17.83;;
21890;SDS011;11110;52.386;16.940;2022-12-20T09:07:37;36.23;;;16.17;;
21890;SDS011;11110;52.386;16.940;2022-12-20T09:10:06;43.37;;;17.63;;
21890;SDS011;11110;52.386;16.940;2022-12-20T09:12:36;63.50;;;43.57;;
21890;SDS011;11110;52.386;16.940;2022-12-20T09:15:05;56.33;;;42.07;;
21890;SDS011;11110;52.386;16.940;2022-12-20T09:17:34;66.83;;;44.93;;
21890;SDS011;11110;52.386;16.940;2022-12-20T09:20:03;65.70;;;45.80;;
21890;SDS011;11110;52.386;16.940;2022-12-20T09:22:33;59.83;;;43.83;;
21890;SDS011;11110;52.386;16.940;2022-12-20T09:25:02;65.93;;;45.20;;
21890;SDS011;11110;52.386;16.940;2022-12-20T09:27:32;68.93;;;45.20;;
21890;SDS011;11110;52.386;16.940;2022-12-20T09:30:01;74.50;;;47.20;;
21890;SDS011;11110;52.386;16.940;2022-12-20T09:32:29;73.57;;;46.33;;
21890;SDS011;11110;52.386;16.940;2022-12-20T09:34:58;88.27;;;47.23;;
21890;SDS011;11110;52.386;16.940;2022-12-20T09:37:28;77.70;;;45.23;;
21890;SDS011;11110;52.386;16.940;2022-12-20T09:39:59;77.13;;;46.17;;
21890;SDS011;11110;52.386;16.940;2022-12-20T09:42:28;78.07;;;45.53;;
21890;SDS011;11110;52.386;16.940;2022-12-20T09:45:00;69.63;;;44.47;;
21890;SDS011;11110;52.386;16.940;2022-12-20T09:47:32;65.70;;;40.80;;
21890;SDS011;11110;52.386;16.940;2022-12-20T09:50:02;66.27;;;42.97;;
21890;SDS011;11110;52.386;16.940;2022-12-20T09:52:38;50.67;;;18.70;;
21890;SDS011;11110;52.386;16.940;2022-12-20T09:55:18;49.17;;;17.33;;
21890;SDS011;11110;52.386;16.940;2022-12-20T09:57:58;156.87;;;71.93;;
21890;SDS011;11110;52.386;16.940;2022-12-20T10:00:43;157.63;;;70.73;;
21890;SDS011;11110;52.386;16.940;2022-12-20T10:03:21;151.43;;;69.07;;
21890;SDS011;11110;52.386;16.940;2022-12-20T10:05:52;152.47;;;69.37;;
21890;SDS011;11110;52.386;16.940;2022-12-20T10:11:25;94.27;;;56.17;;
21890;SDS011;11110;52.386;16.940;2022-12-20T10:14:36;72.43;;;49.37;;
21890;SDS011;11110;52.386;16.940;2022-12-20T10:17:20;67.67;;;44.33;;
21890;SDS011;11110;52.386;16.940;2022-12-20T10:20:12;107.57;;;61.60;;
21890;SDS011;11110;52.386;16.940;2022-12-20T10:22:58;149.10;;;74.23;;
21890;SDS011;11110;52.386;16.940;2022-12-20T10:25:31;125.43;;;69.60;;
21890;SDS011;11110;52.386;16.940;2022-12-20T10:28:03;136.23;;;69.77;;
21890;SDS011;11110;52.386;16.940;2022-12-20T10:30:42;156.70;;;76.13;;
21890;SDS011;11110;52.386;16.940;2022-12-20T10:33:17;120.03;;;67.43;;
21890;SDS011;11110;52.386;16.940;2022-12-20T10:35:48;146.07;;;73.07;;
21890;SDS011;11110;52.386;16.940;2022-12-20T10:38:18;89.50;;;58.77;;
21890;SDS011;11110;52.386;16.940;2022-12-20T10:40:58;200.93;;;159.37;;
21890;SDS011;11110;52.386;16.940;2022-12-20T10:43:50;42.73;;;19.47;;
21890;SDS011;11110;52.386;16.940;2022-12-20T10:46:23;72.70;;;34.53;;
21890;SDS011;11110;52.386;16.940;2022-12-20T10:49:26;67.43;;;48.97;;
21890;SDS011;11110;52.386;16.940;2022-12-20T10:51:58;62.53;;;33.23;;
21890;SDS011;11110;52.386;16.940;2022-12-20T10:54:30;90.57;;;49.40;;
21890;SDS011;11110;52.386;16.940;2022-12-20T10:57:01;128.93;;;67.33;;
21890;SDS011;11110;52.386;16.940;2022-12-20T10:59:43;114.00;;;62.40;;
21890;SDS011;11110;52.386;16.940;2022-12-20T11:02:25;110.97;;;58.47;;
21890;SDS011;11110;52.386;16.940;2022-12-20T11:05:16;155.97;;;75.27;;
21890;SDS011;11110;52.386;16.940;2022-12-20T11:07:53;99.37;;;52.23;;
21890;SDS011;11110;52.386;16.940;2022-12-20T11:10:43;74.70;;;39.93;;
21890;SDS011;11110;52.386;16.940;2022-12-20T11:13:22;133.27;;;70.73;;
21890;SDS011;11110;52.386;16.940;2022-12-20T11:15:54;86.40;;;55.93;;
21890;SDS011;11110;52.386;16.940;2022-12-20T11:18:30;75.93;;;45.50;;
21890;SDS011;11110;52.386;16.940;2022-12-20T11:21:11;81.10;;;52.67;;
21890;SDS011;11110;52.386;16.940;2022-12-20T11:23:55;87.13;;;55.27;;
21890;SDS011;11110;52.386;16.940;2022-12-20T11:26:34;90.90;;;56.00;;
21890;SDS011;11110;52.386;16.940;2022-12-20T11:29:20;84.50;;;50.37;;
21890;SDS011;11110;52.386;16.940;2022-12-20T11:32:02;94.50;;;57.10;;
21890;SDS011;11110;52.386;16.940;2022-12-20T11:34:42;118.13;;;67.67;;
21890;SDS011;11110;52.386;16.940;2022-12-20T11:37:19;130.27;;;66.07;;
21890;SDS011;11110;52.386;16.940;2022-12-20T11:39:55;92.70;;;58.13;;
21890;SDS011;11110;52.386;16.940;2022-12-20T11:42:36;85.30;;;57.00;;
21890;SDS011;11110;52.386;16.940;2022-12-20T11:45:17;90.13;;;53.17;;
21890;SDS011;11110;52.386;16.940;2022-12-20T11:51:05;93.37;;;60.17;;
21890;SDS011;11110;52.386;16.940;2022-12-20T11:53:48;101.30;;;60.50;;
21890;SDS011;11110;52.386;16.940;2022-12-20T11:56:24;90.00;;;57.20;;
21890;SDS011;11110;52.386;16.940;2022-12-20T11:58:59;104.27;;;64.80;;
21890;SDS011;11110;52.386;16.940;2022-12-20T12:01:33;158.43;;;78.20;;
21890;SDS011;11110;52.386;16.940;2022-12-20T12:04:09;124.57;;;69.93;;
21890;SDS011;11110;52.386;16.940;2022-12-20T12:06:44;117.93;;;71.47;;
21890;SDS011;11110;52.386;16.940;2022-12-20T12:09:19;139.27;;;76.20;;
21890;SDS011;11110;52.386;16.940;2022-12-20T12:11:52;128.60;;;70.70;;
21890;SDS011;11110;52.386;16.940;2022-12-20T12:14:42;122.43;;;71.67;;
21890;SDS011;11110;52.386;16.940;2022-12-20T12:17:19;150.57;;;77.70;;
21890;SDS011;11110;52.386;16.940;2022-12-20T12:19:53;112.13;;;65.27;;
21890;SDS011;11110;52.386;16.940;2022-12-20T12:22:30;146.07;;;77.03;;
21890;SDS011;11110;52.386;16.940;2022-12-20T12:25:03;136.77;;;73.23;;
21890;SDS011;11110;52.386;16.940;2022-12-20T12:27:37;124.93;;;72.80;;
21890;SDS011;11110;52.386;16.940;2022-12-20T12:30:11;154.17;;;78.17;;
21890;SDS011;11110;52.386;16.940;2022-12-20T12:32:42;165.10;;;78.70;;
21890;SDS011;11110;52.386;16.940;2022-12-20T12:38:35;135.90;;;72.93;;
21890;SDS011;11110;52.386;16.940;2022-12-20T12:44:42;159.70;;;79.00;;
21890;SDS011;11110;52.386;16.940;2022-12-20T12:47:18;147.43;;;73.30;;
21890;SDS011;11110;52.386;16.940;2022-12-20T12:49:50;137.73;;;72.77;;
21890;SDS011;11110;52.386;16.940;2022-12-20T12:52:39;160.50;;;77.93;;
21890;SDS011;11110;52.386;16.940;2022-12-20T13:01:28;123.73;;;69.67;;
21890;SDS011;11110;52.386;16.940;2022-12-20T13:04:24;148.17;;;75.80;;
21890;SDS011;11110;52.386;16.940;2022-12-20T13:06:56;129.17;;;72.07;;
21890;SDS011;11110;52.386;16.940;2022-12-20T13:09:37;131.70;;;72.60;;
21890;SDS011;11110;52.386;16.940;2022-12-20T13:18:28;152.20;;;76.10;;
21890;SDS011;11110;52.386;16.940;2022-12-20T13:27:23;161.70;;;77.93;;
21890;SDS011;11110;52.386;16.940;2022-12-20T13:29:55;157.83;;;75.97;;
21890;SDS011;11110;52.386;16.940;2022-12-20T13:35:40;155.60;;;75.03;;
21890;SDS011;11110;52.386;16.940;2022-12-20T13:41:39;150.83;;;76.73;;
21890;SDS011;11110;52.386;16.940;2022-12-20T13:50:17;170.27;;;82.63;;
21890;SDS011;11110;52.386;16.940;2022-12-20T13:53:13;57.17;;;20.33;;
21890;SDS011;11110;52.386;16.940;2022-12-20T13:55:45;56.97;;;20.60;;
21890;SDS011;11110;52.386;16.940;2022-12-20T13:58:15;55.50;;;21.50;;
21890;SDS011;11110;52.386;16.940;2022-12-20T14:00:46;67.93;;;21.53;;
21890;SDS011;11110;52.386;16.940;2022-12-20T14:03:20;56.33;;;22.17;;
21890;SDS011;11110;52.386;16.940;2022-12-20T14:05:52;61.00;;;21.00;;
21890;SDS011;11110;52.386;16.940;2022-12-20T14:08:26;55.10;;;19.80;;
21890;SDS011;11110;52.386;16.940;2022-12-20T14:11:08;61.47;;;21.07;;
21890;SDS011;11110;52.386;16.940;2022-12-20T14:13:39;56.77;;;19.97;;
21890;SDS011;11110;52.386;16.940;2022-12-20T14:16:10;49.13;;;20.03;;
21890;SDS011;11110;52.386;16.940;2022-12-20T14:18:46;53.73;;;20.07;;
21890;SDS011;11110;52.386;16.940;2022-12-20T14:21:16;58.40;;;20.37;;
21890;SDS011;11110;52.386;16.940;2022-12-20T14:23:47;55.40;;;20.87;;
21890;SDS011;11110;52.386;16.940;2022-12-20T14:26:19;60.37;;;21.50;;
21890;SDS011;11110;52.386;16.940;2022-12-20T14:28:52;54.40;;;20.20;;
21890;SDS011;11110;52.386;16.940;2022-12-20T14:31:23;53.27;;;19.60;;
21890;SDS011;11110;52.386;16.940;2022-12-20T14:34:00;55.97;;;20.13;;
21890;SDS011;11110;52.386;16.940;2022-12-20T14:36:31;52.43;;;20.73;;
21890;SDS011;11110;52.386;16.940;2022-12-20T14:39:09;53.47;;;19.37;;
21890;SDS011;11110;52.386;16.940;2022-12-20T14:41:54;50.87;;;19.57;;
21890;SDS011;11110;52.386;16.940;2022-12-20T14:44:24;52.67;;;21.50;;
21890;SDS011;11110;52.386;16.940;2022-12-20T14:46:56;53.23;;;19.80;;
21890;SDS011;11110;52.386;16.940;2022-12-20T14:49:26;64.83;;;21.43;;
21890;SDS011;11110;52.386;16.940;2022-12-20T14:52:04;61.30;;;20.50;;
21890;SDS011;11110;52.386;16.940;2022-12-20T14:54:43;55.27;;;20.70;;
21890;SDS011;11110;52.386;16.940;2022-12-20T14:57:38;57.37;;;22.63;;
21890;SDS011;11110;52.386;16.940;2022-12-20T15:00:12;61.20;;;22.67;;
21890;SDS011;11110;52.386;16.940;2022-12-20T15:02:49;69.40;;;25.53;;
21890;SDS011;11110;52.386;16.940;2022-12-20T15:05:36;59.03;;;21.83;;
21890;SDS011;11110;52.386;16.940;2022-12-20T15:08:12;59.77;;;21.50;;
21890;SDS011;11110;52.386;16.940;2022-12-20T15:10:46;63.60;;;23.07;;
21890;SDS011;11110;52.386;16.940;2022-12-20T15:13:24;64.60;;;22.57;;
21890;SDS011;11110;52.386;16.940;2022-12-20T15:15:57;64.80;;;23.83;;
21890;SDS011;11110;52.386;16.940;2022-12-20T15:18:30;58.97;;;22.57;;
21890;SDS011;11110;52.386;16.940;2022-12-20T15:21:03;73.50;;;24.50;;
21890;SDS011;11110;52.386;16.940;2022-12-20T15:23:33;69.77;;;25.57;;
21890;SDS011;11110;52.386;16.940;2022-12-20T15:26:03;65.00;;;25.20;;
21890;SDS011;11110;52.386;16.940;2022-12-20T15:28:32;60.57;;;24.30;;